createdAt,value
2023-05-19T00:00:08.235Z,65.73
2023-05-19T00:01:08.245Z,65.94
2023-05-19T00:02:08.251Z,66.24
2023-05-19T00:03:08.322Z,66.65
2023-05-19T00:04:08.207Z,66.85
2023-05-19T00:05:08.207Z,66.96
2023-05-19T00:06:08.274Z,67.05
2023-05-19T00:07:08.175Z,67.36
2023-05-19T00:08:08.165Z,67.46
2023-05-19T00:09:08.164Z,67.26
2023-05-19T00:10:08.129Z,67.66
2023-05-19T00:11:08.112Z,67.80
2023-05-19T00:12:08.114Z,67.66
2023-05-19T00:13:08.093Z,68.01
2023-05-19T00:14:08.088Z,68.01
2023-05-19T00:15:08.093Z,67.90
2023-05-19T00:16:08.125Z,67.90
2023-05-19T00:17:08.140Z,67.90
2023-05-19T00:18:08.089Z,67.60
2023-05-19T00:19:08.096Z,67.39
2023-05-19T00:20:08.017Z,67.39
2023-05-19T00:21:08.016Z,67.39
2023-05-19T00:22:08.003Z,67.39
2023-05-19T00:23:08.000Z,67.29
2023-05-19T00:24:07.992Z,67.60
2023-05-19T00:25:07.978Z,67.60
2023-05-19T00:26:07.985Z,67.49
2023-05-19T00:27:07.954Z,67.60
2023-05-19T00:28:07.938Z,67.69
2023-05-19T00:29:07.924Z,67.60
2023-05-19T00:30:07.945Z,67.69
2023-05-19T00:31:07.904Z,67.60
2023-05-19T00:32:08.047Z,67.69
2023-05-19T00:33:08.017Z,67.80
2023-05-19T00:34:07.869Z,67.69
2023-05-19T00:35:07.873Z,67.80
2023-05-19T00:36:07.867Z,67.90
2023-05-19T00:37:07.859Z,68.01
2023-05-19T00:38:07.827Z,67.90
2023-05-19T00:39:07.825Z,67.90
2023-05-19T00:40:07.801Z,68.01
2023-05-19T00:41:07.820Z,68.01
2023-05-19T00:42:07.806Z,67.90
2023-05-19T00:43:07.778Z,67.90
2023-05-19T00:44:07.754Z,68.01
2023-05-19T00:45:07.784Z,68.10
2023-05-19T00:46:07.833Z,67.90
2023-05-19T00:47:07.814Z,67.90
2023-05-19T00:48:07.804Z,67.80
2023-05-19T00:49:07.720Z,67.69
2023-05-19T00:50:07.721Z,67.90
2023-05-19T00:51:07.704Z,67.80
2023-05-19T00:52:07.701Z,68.10
2023-05-19T00:53:07.674Z,68.21
2023-05-19T00:54:07.657Z,68.21
2023-05-19T00:55:07.647Z,68.21
2023-05-19T00:56:07.646Z,68.21
2023-05-19T00:57:07.626Z,68.51
2023-05-19T00:58:07.627Z,68.65
2023-05-19T00:59:07.631Z,68.54
2023-05-19T01:00:07.895Z,68.75
2023-05-19T01:01:07.696Z,68.85
2023-05-19T01:02:07.575Z,69.06
2023-05-19T01:03:07.685Z,69.06
2023-05-19T01:04:07.724Z,69.26
2023-05-19T01:05:07.556Z,69.46
2023-05-19T01:06:07.631Z,69.56
2023-05-19T01:07:07.517Z,69.46
2023-05-19T01:08:07.511Z,69.67
2023-05-19T01:09:07.483Z,69.56
2023-05-19T01:10:07.494Z,69.67
2023-05-19T01:11:07.475Z,69.67
2023-05-19T01:12:07.457Z,69.67
2023-05-19T01:13:07.441Z,69.87
2023-05-19T01:14:07.457Z,69.87
2023-05-19T01:15:07.430Z,69.87
2023-05-19T01:16:07.501Z,70.07
2023-05-19T01:17:07.399Z,70.07
2023-05-19T01:18:07.547Z,70.07
2023-05-19T01:19:07.424Z,70.17
2023-05-19T01:20:07.393Z,70.41
2023-05-19T01:21:07.371Z,70.31
2023-05-19T01:22:07.366Z,70.28
2023-05-19T01:23:07.346Z,70.48
2023-05-19T01:24:07.348Z,70.41
2023-05-19T01:25:07.332Z,70.31
2023-05-19T01:26:07.316Z,70.31
2023-05-19T01:27:07.321Z,70.41
2023-05-19T01:28:07.288Z,70.21
2023-05-19T01:29:07.279Z,70.31
2023-05-19T01:30:07.294Z,70.51
2023-05-19T01:31:07.258Z,70.72
2023-05-19T01:32:07.331Z,70.82
2023-05-19T01:33:07.359Z,70.72
2023-05-19T01:34:07.268Z,70.92
2023-05-19T01:35:07.239Z,70.92
2023-05-19T01:36:07.226Z,71.12
2023-05-19T01:37:07.187Z,71.23
2023-05-19T01:38:07.227Z,71.12
2023-05-19T01:39:07.168Z,71.15
2023-05-19T01:40:07.204Z,71.26
2023-05-19T01:41:07.138Z,71.23
2023-05-19T01:42:07.139Z,71.12
2023-05-19T01:43:07.132Z,71.02
2023-05-19T01:44:07.116Z,71.12
2023-05-19T01:45:07.104Z,71.12
2023-05-19T01:46:07.126Z,71.12
2023-05-19T01:47:07.092Z,71.02
2023-05-19T01:48:09.251Z,71.12
2023-05-19T01:49:07.054Z,71.12
2023-05-19T01:50:07.048Z,71.12
2023-05-19T01:51:07.065Z,71.12
2023-05-19T01:52:07.025Z,71.02
2023-05-19T01:53:07.036Z,71.02
2023-05-19T01:54:07.009Z,71.02
2023-05-19T01:55:07.000Z,71.12
2023-05-19T01:56:07.005Z,71.23
2023-05-19T01:57:06.974Z,71.23
2023-05-19T01:58:06.973Z,71.12
2023-05-19T01:59:06.950Z,71.23
2023-05-19T02:00:06.971Z,71.33
2023-05-19T02:01:06.962Z,71.33
2023-05-19T02:02:06.940Z,71.33
2023-05-19T02:03:06.925Z,71.33
2023-05-19T02:04:06.948Z,71.53
2023-05-19T02:05:06.884Z,71.63
2023-05-19T02:06:06.876Z,71.63
2023-05-19T02:07:06.862Z,71.33
2023-05-19T02:08:06.862Z,71.33
2023-05-19T02:09:06.857Z,71.12
2023-05-19T02:10:06.837Z,71.33
2023-05-19T02:11:06.826Z,71.43
2023-05-19T02:12:06.828Z,71.53
2023-05-19T02:13:06.808Z,71.53
2023-05-19T02:14:06.814Z,71.33
2023-05-19T02:15:06.817Z,71.43
2023-05-19T02:16:06.841Z,71.53
2023-05-19T02:17:06.759Z,71.43
2023-05-19T02:18:06.859Z,71.33
2023-05-19T02:19:06.831Z,71.33
2023-05-19T02:20:06.770Z,71.63
2023-05-19T02:21:06.711Z,71.73
2023-05-19T02:22:06.705Z,71.53
2023-05-19T02:23:06.695Z,71.43
2023-05-19T02:24:06.715Z,71.63
2023-05-19T02:25:06.668Z,71.63
2023-05-19T02:26:06.662Z,71.73
2023-05-19T02:27:06.704Z,71.73
2023-05-19T02:28:06.647Z,71.63
2023-05-19T02:29:06.626Z,71.53
2023-05-19T02:30:06.628Z,71.53
2023-05-19T02:31:06.607Z,71.63
2023-05-19T02:32:06.629Z,71.84
2023-05-19T02:33:06.723Z,71.84
2023-05-19T02:34:06.580Z,71.87
2023-05-19T02:35:06.592Z,71.84
2023-05-19T02:36:06.552Z,71.73
2023-05-19T02:37:06.554Z,71.73
2023-05-19T02:38:06.545Z,71.84
2023-05-19T02:39:06.509Z,71.84
2023-05-19T02:40:06.501Z,71.73
2023-05-19T02:41:06.507Z,71.63
2023-05-19T02:42:06.507Z,71.73
2023-05-19T02:43:06.491Z,71.84
2023-05-19T02:44:06.475Z,71.84
2023-05-19T02:45:06.454Z,71.84
2023-05-19T02:46:06.485Z,71.97
2023-05-19T02:47:06.446Z,71.84
2023-05-19T02:48:06.462Z,71.73
2023-05-19T02:49:06.404Z,72.08
2023-05-19T02:50:06.401Z,72.08
2023-05-19T02:51:06.387Z,71.97
2023-05-19T02:52:06.375Z,71.97
2023-05-19T02:53:06.367Z,71.94
2023-05-19T02:54:06.356Z,72.17
2023-05-19T02:55:06.331Z,72.17
2023-05-19T02:56:06.342Z,72.28
2023-05-19T02:57:06.332Z,72.17
2023-05-19T02:58:06.312Z,72.28
2023-05-19T02:59:06.291Z,72.58
2023-05-19T03:00:06.298Z,72.34
2023-05-19T03:01:06.342Z,72.38
2023-05-19T03:02:06.380Z,72.28
2023-05-19T03:03:06.351Z,72.28
2023-05-19T03:04:06.312Z,72.38
2023-05-19T03:05:06.233Z,72.38
2023-05-19T03:06:06.240Z,72.38
2023-05-19T03:07:06.218Z,72.48
2023-05-19T03:08:06.242Z,72.48
2023-05-19T03:09:06.205Z,72.38
2023-05-19T03:10:06.180Z,72.38
2023-05-19T03:11:06.169Z,72.48
2023-05-19T03:12:06.183Z,72.58
2023-05-19T03:13:06.147Z,72.69
2023-05-19T03:14:06.141Z,72.69
2023-05-19T03:15:06.133Z,72.69
2023-05-19T03:16:06.145Z,72.89
2023-05-19T03:17:06.108Z,72.99
2023-05-19T03:18:06.106Z,72.89
2023-05-19T03:19:06.135Z,72.79
2023-05-19T03:20:06.070Z,72.69
2023-05-19T03:21:06.057Z,72.69
2023-05-19T03:22:06.052Z,72.79
2023-05-19T03:23:06.038Z,72.69
2023-05-19T03:24:06.030Z,72.89
2023-05-19T03:25:06.036Z,72.99
2023-05-19T03:26:06.013Z,73.30
2023-05-19T03:27:05.999Z,73.10
2023-05-19T03:28:06.030Z,73.10
2023-05-19T03:29:05.979Z,73.23
2023-05-19T03:30:06.779Z,73.19
2023-05-19T03:31:05.946Z,73.30
2023-05-19T03:32:05.996Z,73.33
2023-05-19T03:33:05.985Z,73.50
2023-05-19T03:34:05.925Z,73.50
2023-05-19T03:35:05.906Z,73.94
2023-05-19T03:36:05.907Z,74.25
2023-05-19T03:37:05.910Z,74.45
2023-05-19T03:38:05.891Z,74.45
2023-05-19T03:39:05.867Z,74.55
2023-05-19T03:40:05.877Z,74.86
2023-05-19T03:41:05.850Z,74.96
2023-05-19T03:42:05.855Z,75.07
2023-05-19T03:43:05.824Z,75.16
2023-05-19T03:44:05.834Z,75.37
2023-05-19T03:45:05.804Z,75.27
2023-05-19T03:46:05.824Z,75.37
2023-05-19T03:47:05.780Z,75.57
2023-05-19T03:48:05.805Z,75.71
2023-05-19T03:49:05.761Z,75.71
2023-05-19T03:50:05.760Z,75.71
2023-05-19T03:51:05.742Z,76.02
2023-05-19T03:52:05.741Z,76.02
2023-05-19T03:53:05.719Z,76.12
2023-05-19T03:54:05.762Z,76.22
2023-05-19T03:55:05.699Z,76.32
2023-05-19T03:56:05.687Z,76.43
2023-05-19T03:57:05.674Z,76.53
2023-05-19T03:58:05.668Z,76.53
2023-05-19T03:59:05.650Z,76.56
2023-05-19T04:00:05.663Z,76.56
2023-05-19T04:01:05.642Z,76.53
2023-05-19T04:02:05.653Z,76.53
2023-05-19T04:03:05.708Z,76.53
2023-05-19T04:04:05.631Z,76.73
2023-05-19T04:05:05.597Z,76.63
2023-05-19T04:06:05.581Z,76.67
2023-05-19T04:07:05.562Z,76.67
2023-05-19T04:08:05.565Z,76.97
2023-05-19T04:09:05.544Z,76.97
2023-05-19T04:10:05.543Z,77.08
2023-05-19T04:11:05.523Z,77.08
2023-05-19T04:12:05.514Z,77.18
2023-05-19T04:13:05.530Z,77.08
2023-05-19T04:14:05.495Z,77.18
2023-05-19T04:15:06.210Z,77.18
2023-05-19T04:16:05.501Z,77.18
2023-05-19T04:17:05.466Z,77.18
2023-05-19T04:18:05.464Z,77.28
2023-05-19T04:19:05.487Z,77.28
2023-05-19T04:20:05.425Z,77.38
2023-05-19T04:21:05.422Z,77.28
2023-05-19T04:22:05.403Z,77.38
2023-05-19T04:23:05.405Z,77.48
2023-05-19T04:24:05.407Z,77.62
2023-05-19T04:25:05.376Z,77.83
2023-05-19T04:26:05.383Z,77.83
2023-05-19T04:27:05.344Z,77.93
2023-05-19T04:28:05.336Z,77.89
2023-05-19T04:29:05.327Z,78.00
2023-05-19T04:30:05.325Z,78.03
2023-05-19T04:31:05.359Z,77.83
2023-05-19T04:32:05.296Z,77.93
2023-05-19T04:33:05.361Z,77.79
2023-05-19T04:34:05.280Z,77.89
2023-05-19T04:35:05.255Z,77.79
2023-05-19T04:36:05.275Z,77.59
2023-05-19T04:37:05.251Z,77.38
2023-05-19T04:38:05.240Z,77.48
2023-05-19T04:39:05.216Z,77.28
2023-05-19T04:40:05.213Z,77.18
2023-05-19T04:41:05.218Z,76.87
2023-05-19T04:42:05.221Z,76.97
2023-05-19T04:43:05.177Z,77.38
2023-05-19T04:44:05.163Z,77.48
2023-05-19T04:45:05.162Z,77.48
2023-05-19T04:46:05.514Z,77.38
2023-05-19T04:47:05.561Z,77.28
2023-05-19T04:48:05.766Z,77.28
2023-05-19T04:49:05.141Z,77.08
2023-05-19T04:50:06.360Z,76.87
2023-05-19T04:51:05.087Z,76.84
2023-05-19T04:52:05.094Z,76.63
2023-05-19T04:53:05.069Z,76.63
2023-05-19T04:54:05.052Z,76.63
2023-05-19T04:55:05.109Z,76.73
2023-05-19T04:56:05.477Z,76.63
2023-05-19T04:57:05.055Z,76.53
2023-05-19T04:58:05.059Z,76.53
2023-05-19T04:59:05.063Z,76.53
2023-05-19T05:00:05.066Z,76.53
2023-05-19T05:01:05.008Z,76.43
2023-05-19T05:02:05.072Z,76.32
2023-05-19T05:03:05.181Z,76.29
2023-05-19T05:04:05.158Z,76.09
2023-05-19T05:05:05.042Z,75.88
2023-05-19T05:06:04.974Z,75.78
2023-05-19T05:07:04.940Z,75.88
2023-05-19T05:08:04.922Z,75.68
2023-05-19T05:09:04.982Z,75.57
2023-05-19T05:10:04.980Z,75.57
2023-05-19T05:11:04.947Z,75.57
2023-05-19T05:12:04.998Z,75.37
2023-05-19T05:13:05.086Z,75.37
2023-05-19T05:14:04.963Z,75.57
2023-05-19T05:15:04.861Z,75.68
2023-05-19T05:16:04.859Z,75.68
2023-05-19T05:17:04.800Z,75.57
2023-05-19T05:18:04.838Z,75.57
2023-05-19T05:19:04.818Z,75.57
2023-05-19T05:20:04.768Z,75.27
2023-05-19T05:21:04.769Z,74.96
2023-05-19T05:22:04.748Z,74.83
2023-05-19T05:23:04.843Z,74.93
2023-05-19T05:24:04.772Z,74.93
2023-05-19T05:25:04.808Z,74.93
2023-05-19T05:26:04.721Z,75.13
2023-05-19T05:27:04.747Z,75.23
2023-05-19T05:28:04.811Z,75.23
2023-05-19T05:29:04.968Z,74.93
2023-05-19T05:30:04.887Z,74.52
2023-05-19T05:31:05.990Z,74.42
2023-05-19T05:32:04.789Z,74.52
2023-05-19T05:33:05.661Z,74.42
2023-05-19T05:34:04.732Z,74.42
2023-05-19T05:35:05.355Z,74.42
2023-05-19T05:36:04.745Z,74.32
2023-05-19T05:37:04.890Z,74.38
2023-05-19T05:38:04.664Z,74.18
2023-05-19T05:39:05.478Z,73.88
2023-05-19T05:40:04.746Z,73.88
2023-05-19T05:41:05.509Z,73.77
2023-05-19T05:42:04.631Z,73.67
2023-05-19T05:43:05.912Z,73.77
2023-05-19T05:44:04.686Z,73.97
2023-05-19T05:45:04.660Z,73.77
2023-05-19T05:46:04.549Z,73.77
2023-05-19T05:47:05.303Z,73.67
2023-05-19T05:48:04.548Z,73.67
2023-05-19T05:49:04.625Z,73.97
2023-05-19T05:50:04.606Z,74.18
2023-05-19T05:51:04.475Z,73.88
2023-05-19T05:52:06.551Z,73.77
2023-05-19T05:53:04.599Z,73.88
2023-05-19T05:54:04.496Z,73.97
2023-05-19T05:55:04.436Z,73.88
2023-05-19T05:56:04.412Z,73.88
2023-05-19T05:57:04.515Z,73.77
2023-05-19T05:58:04.507Z,73.64
2023-05-19T05:59:04.357Z,73.84
2023-05-19T06:00:04.346Z,74.04
2023-05-19T06:01:04.339Z,73.74
2023-05-19T06:02:04.358Z,73.64
2023-05-19T06:03:04.394Z,73.74
2023-05-19T06:04:04.314Z,73.74
2023-05-19T06:05:04.322Z,73.84
2023-05-19T06:06:04.413Z,73.84
2023-05-19T06:07:04.299Z,73.74
2023-05-19T06:08:04.252Z,73.33
2023-05-19T06:09:04.253Z,73.43
2023-05-19T06:10:04.253Z,73.54
2023-05-19T06:11:04.261Z,73.43
2023-05-19T06:12:04.223Z,73.43
2023-05-19T06:13:04.220Z,73.54
2023-05-19T06:14:04.204Z,73.60
2023-05-19T06:15:04.194Z,73.60
2023-05-19T06:16:04.225Z,73.60
2023-05-19T06:17:04.167Z,73.80
2023-05-19T06:18:04.212Z,73.60
2023-05-19T06:19:04.185Z,73.30
2023-05-19T06:20:04.175Z,73.30
2023-05-19T06:21:04.223Z,73.10
2023-05-19T06:22:04.126Z,72.99
2023-05-19T06:23:04.136Z,73.36
2023-05-19T06:24:04.130Z,73.06
2023-05-19T06:25:04.121Z,73.47
2023-05-19T06:26:04.118Z,73.36
2023-05-19T06:27:04.403Z,73.16
2023-05-19T06:28:04.116Z,73.16
2023-05-19T06:29:04.157Z,73.16
2023-05-19T06:30:04.094Z,72.62
2023-05-19T06:31:04.047Z,72.62
2023-05-19T06:32:04.049Z,73.13
2023-05-19T06:33:04.075Z,73.02
2023-05-19T06:34:04.166Z,72.92
2023-05-19T06:35:03.980Z,72.62
2023-05-19T06:36:03.978Z,72.52
2023-05-19T06:37:04.223Z,72.21
2023-05-19T06:38:04.013Z,72.17
2023-05-19T06:39:04.013Z,72.17
2023-05-19T06:40:05.024Z,72.58
2023-05-19T06:41:04.317Z,72.69
2023-05-19T06:42:04.529Z,72.99
2023-05-19T06:43:03.949Z,72.89
2023-05-19T06:44:04.070Z,72.78
2023-05-19T06:45:04.163Z,72.28
2023-05-19T06:46:04.899Z,71.97
2023-05-19T06:47:04.040Z,71.87
2023-05-19T06:48:03.946Z,71.77
2023-05-19T06:49:03.881Z,72.14
2023-05-19T06:50:03.902Z,72.04
2023-05-19T06:51:03.902Z,71.84
2023-05-19T06:52:04.891Z,71.53
2023-05-19T06:53:03.805Z,71.23
2023-05-19T06:54:06.356Z,71.30
2023-05-19T06:55:03.842Z,71.09
2023-05-19T06:56:04.534Z,70.59
2023-05-19T06:57:03.851Z,70.48
2023-05-19T06:58:04.538Z,70.55
2023-05-19T06:59:03.897Z,70.65
2023-05-19T07:00:04.561Z,70.55
2023-05-19T07:01:03.737Z,70.25
2023-05-19T07:02:04.136Z,69.51
2023-05-19T07:03:03.796Z,69.60
2023-05-19T07:04:04.807Z,69.51
2023-05-19T07:05:03.755Z,69.40
2023-05-19T07:06:05.671Z,69.37
2023-05-19T07:07:03.636Z,69.17
2023-05-19T07:08:03.812Z,68.96
2023-05-19T07:09:03.602Z,68.93
2023-05-19T07:10:04.383Z,68.73
2023-05-19T07:11:03.599Z,68.52
2023-05-19T07:12:04.293Z,68.49
2023-05-19T07:13:03.594Z,68.40
2023-05-19T07:14:04.258Z,67.99
2023-05-19T07:15:03.533Z,67.18
2023-05-19T07:16:03.583Z,66.94
2023-05-19T07:17:03.522Z,66.84
2023-05-19T07:18:04.229Z,66.64
2023-05-19T07:19:03.546Z,66.24
2023-05-19T07:20:03.526Z,66.24
2023-05-19T07:21:03.510Z,66.41
2023-05-19T07:22:03.514Z,66.00
2023-05-19T07:23:03.466Z,65.90
2023-05-19T07:24:03.511Z,65.70
2023-05-19T07:25:03.445Z,66.00
2023-05-19T07:26:03.482Z,65.59
2023-05-19T07:27:03.410Z,65.59
2023-05-19T07:28:03.978Z,65.90
2023-05-19T07:29:03.379Z,65.29
2023-05-19T07:30:03.377Z,65.39
2023-05-19T07:31:03.363Z,65.59
2023-05-19T07:32:03.468Z,65.50
2023-05-19T07:33:03.372Z,65.09
2023-05-19T07:34:03.343Z,65.26
2023-05-19T07:35:03.325Z,64.65
2023-05-19T07:36:03.411Z,64.86
2023-05-19T07:37:03.362Z,64.65
2023-05-19T07:38:03.300Z,64.35
2023-05-19T07:39:03.390Z,64.35
2023-05-19T07:40:03.305Z,63.95
2023-05-19T07:41:03.303Z,64.15
2023-05-19T07:42:03.264Z,64.25
2023-05-19T07:43:03.285Z,64.15
2023-05-19T07:44:03.376Z,63.92
2023-05-19T07:45:03.382Z,63.71
2023-05-19T07:46:03.290Z,63.71
2023-05-19T07:47:03.219Z,64.02
2023-05-19T07:48:03.323Z,64.12
2023-05-19T07:49:03.174Z,63.99
2023-05-19T07:50:03.211Z,63.99
2023-05-19T07:51:03.218Z,63.68
2023-05-19T07:52:03.149Z,63.18
2023-05-19T07:53:03.177Z,62.74
2023-05-19T07:54:03.123Z,62.74
2023-05-19T07:55:03.291Z,62.54
2023-05-19T07:56:03.153Z,62.95
2023-05-19T07:57:03.107Z,62.71
2023-05-19T07:58:03.079Z,62.31
2023-05-19T07:59:03.115Z,62.41
2023-05-19T08:00:03.144Z,62.31
2023-05-19T08:01:03.089Z,62.51
2023-05-19T08:02:03.068Z,62.68
2023-05-19T08:03:03.139Z,62.51
2023-05-19T08:04:03.117Z,62.31
2023-05-19T08:05:04.598Z,62.21
2023-05-19T08:06:03.014Z,62.01
2023-05-19T08:07:03.956Z,61.91
2023-05-19T08:08:03.091Z,61.80
2023-05-19T08:09:03.735Z,61.91
2023-05-19T08:10:03.093Z,61.60
2023-05-19T08:11:03.097Z,61.60
2023-05-19T08:12:02.915Z,61.80
2023-05-19T08:13:03.060Z,61.71
2023-05-19T08:14:02.926Z,61.91
2023-05-19T08:15:03.918Z,61.80
2023-05-19T08:16:03.049Z,61.73
2023-05-19T08:17:03.588Z,62.04
2023-05-19T08:18:02.902Z,62.14
2023-05-19T08:19:03.315Z,62.04
2023-05-19T08:20:02.888Z,62.24
2023-05-19T08:21:03.022Z,62.04
2023-05-19T08:22:02.904Z,62.34
2023-05-19T08:23:03.078Z,62.64
2023-05-19T08:24:02.837Z,62.64
2023-05-19T08:25:02.953Z,62.74
2023-05-19T08:26:02.804Z,62.34
2023-05-19T08:27:02.770Z,62.44
2023-05-19T08:28:02.769Z,61.94
2023-05-19T08:29:02.918Z,61.94
2023-05-19T08:30:03.023Z,61.94
2023-05-19T08:31:02.867Z,62.14
2023-05-19T08:32:02.834Z,62.24
2023-05-19T08:33:02.801Z,62.74
2023-05-19T08:34:02.699Z,62.54
2023-05-19T08:35:02.745Z,62.34
2023-05-19T08:36:02.867Z,62.04
2023-05-19T08:37:02.704Z,61.94
2023-05-19T08:38:02.801Z,61.94
2023-05-19T08:39:02.652Z,61.80
2023-05-19T08:40:02.669Z,62.11
2023-05-19T08:41:02.628Z,62.31
2023-05-19T08:42:02.666Z,62.64
2023-05-19T08:43:02.669Z,62.54
2023-05-19T08:44:02.910Z,62.41
2023-05-19T08:45:02.572Z,62.41
2023-05-19T08:46:02.569Z,62.41
2023-05-19T08:47:02.809Z,62.31
2023-05-19T08:48:02.649Z,62.21
2023-05-19T08:49:02.601Z,62.01
2023-05-19T08:50:02.533Z,61.60
2023-05-19T08:51:02.511Z,61.60
2023-05-19T08:52:02.618Z,61.51
2023-05-19T08:53:02.524Z,61.80
2023-05-19T08:54:02.759Z,61.71
2023-05-19T08:55:02.493Z,61.71
2023-05-19T08:56:02.498Z,61.60
2023-05-19T08:57:02.501Z,61.60
2023-05-19T08:58:02.476Z,61.91
2023-05-19T08:59:02.430Z,61.98
2023-05-19T09:00:02.528Z,61.98
2023-05-19T09:01:02.419Z,61.77
2023-05-19T09:02:02.478Z,61.88
2023-05-19T09:03:17.581Z,61.88
2023-05-19T09:04:03.600Z,61.77
2023-05-19T09:05:02.523Z,61.47
2023-05-19T09:06:02.447Z,61.37
2023-05-19T09:07:02.385Z,61.57
2023-05-19T09:08:02.420Z,61.14
2023-05-19T09:09:02.328Z,61.35
2023-05-19T09:10:02.368Z,61.24
2023-05-19T09:11:02.406Z,61.04
2023-05-19T09:12:02.272Z,60.94
2023-05-19T09:13:02.268Z,60.94
2023-05-19T09:14:02.312Z,61.24
2023-05-19T09:15:02.247Z,61.14
2023-05-19T09:16:02.305Z,60.84
2023-05-19T09:17:02.357Z,60.84
2023-05-19T09:18:02.282Z,60.94
2023-05-19T09:19:02.193Z,60.74
2023-05-19T09:20:02.875Z,60.84
2023-05-19T09:21:02.181Z,60.64
2023-05-19T09:22:03.164Z,60.53
2023-05-19T09:23:02.140Z,60.31
2023-05-19T09:24:03.650Z,60.41
2023-05-19T09:25:02.145Z,60.91
2023-05-19T09:26:02.824Z,61.01
2023-05-19T09:27:02.137Z,60.91
2023-05-19T09:28:02.462Z,60.81
2023-05-19T09:29:02.158Z,60.81
2023-05-19T09:30:02.793Z,60.41
2023-05-19T09:31:02.213Z,60.31
2023-05-19T09:32:02.804Z,60.41
2023-05-19T09:33:02.117Z,60.51
2023-05-19T09:34:02.208Z,60.51
2023-05-19T09:35:02.112Z,60.48
2023-05-19T09:36:02.100Z,60.38
2023-05-19T09:37:01.991Z,59.97
2023-05-19T09:38:02.016Z,59.97
2023-05-19T09:39:02.056Z,59.97
2023-05-19T09:40:02.010Z,60.38
2023-05-19T09:41:02.060Z,60.28
2023-05-19T09:42:01.939Z,59.88
2023-05-19T09:43:01.941Z,60.17
2023-05-19T09:44:01.935Z,60.08
2023-05-19T09:45:02.150Z,59.57
2023-05-19T09:46:01.950Z,59.37
2023-05-19T09:47:01.888Z,59.67
2023-05-19T09:48:01.972Z,59.88
2023-05-19T09:49:03.252Z,59.97
2023-05-19T09:50:04.293Z,59.57
2023-05-19T09:51:05.113Z,59.47
2023-05-19T09:52:03.626Z,59.67
2023-05-19T09:53:02.579Z,59.88
2023-05-19T09:54:01.973Z,59.67
2023-05-19T09:55:01.887Z,59.17
2023-05-19T09:56:01.829Z,59.44
2023-05-19T09:57:01.833Z,59.04
2023-05-19T09:58:01.862Z,58.74
2023-05-19T09:59:01.806Z,58.84
2023-05-19T10:00:01.753Z,58.74
2023-05-19T10:01:01.868Z,58.94
2023-05-19T10:02:01.821Z,59.22
2023-05-19T10:03:01.829Z,59.01
2023-05-19T10:04:03.657Z,58.61
2023-05-19T10:05:01.872Z,58.61
2023-05-19T10:06:01.785Z,59.01
2023-05-19T10:07:01.708Z,58.81
2023-05-19T10:08:01.792Z,58.41
2023-05-19T10:09:01.687Z,58.21
2023-05-19T10:10:01.693Z,57.90
2023-05-19T10:11:01.685Z,58.18
2023-05-19T10:12:01.785Z,58.38
2023-05-19T10:13:01.728Z,58.28
2023-05-19T10:14:01.648Z,57.88
2023-05-19T10:15:01.611Z,58.07
2023-05-19T10:16:01.961Z,58.07
2023-05-19T10:17:01.758Z,58.18
2023-05-19T10:18:01.618Z,58.58
2023-05-19T10:19:01.593Z,58.78
2023-05-19T10:20:01.527Z,58.78
2023-05-19T10:21:01.531Z,58.78
2023-05-19T10:22:01.500Z,58.38
2023-05-19T10:23:01.500Z,58.07
2023-05-19T10:24:01.473Z,57.98
2023-05-19T10:25:01.510Z,57.75
2023-05-19T10:26:01.453Z,57.65
2023-05-19T10:27:01.452Z,58.25
2023-05-19T10:28:01.431Z,58.15
2023-05-19T10:29:01.421Z,57.95
2023-05-19T10:30:01.461Z,57.35
2023-05-19T10:31:01.396Z,57.35
2023-05-19T10:32:01.417Z,57.48
2023-05-19T10:33:01.650Z,57.88
2023-05-19T10:34:01.473Z,58.28
2023-05-19T10:35:02.914Z,58.11
2023-05-19T10:36:01.418Z,57.70
2023-05-19T10:37:01.480Z,57.60
2023-05-19T10:38:01.440Z,58.21
2023-05-19T10:39:02.142Z,58.11
2023-05-19T10:40:01.740Z,58.21
2023-05-19T10:41:01.432Z,58.41
2023-05-19T10:42:01.295Z,58.11
2023-05-19T10:43:01.399Z,58.21
2023-05-19T10:44:01.260Z,58.18
2023-05-19T10:45:01.669Z,58.28
2023-05-19T10:46:02.667Z,58.18
2023-05-19T10:47:01.721Z,57.78
2023-05-19T10:48:01.281Z,57.48
2023-05-19T10:49:01.315Z,57.88
2023-05-19T10:50:01.287Z,57.68
2023-05-19T10:51:01.423Z,57.98
2023-05-19T10:52:01.302Z,57.88
2023-05-19T10:53:01.278Z,58.07
2023-05-19T10:54:01.193Z,57.78
2023-05-19T10:55:01.291Z,58.07
2023-05-19T10:56:01.233Z,57.88
2023-05-19T10:57:01.138Z,57.48
2023-05-19T10:58:01.165Z,57.17
2023-05-19T10:59:01.109Z,57.37
2023-05-19T11:00:01.109Z,57.37
2023-05-19T11:01:01.109Z,57.50
2023-05-19T11:02:01.178Z,57.81
2023-05-19T11:03:01.109Z,57.70
2023-05-19T11:04:01.079Z,57.60
2023-05-19T11:05:01.036Z,57.90
2023-05-19T11:06:01.041Z,58.21
2023-05-19T11:07:03.702Z,58.01
2023-05-19T11:08:01.116Z,57.70
2023-05-19T11:09:01.038Z,58.01
2023-05-19T11:10:01.229Z,58.41
2023-05-19T11:11:01.009Z,58.41
2023-05-19T11:12:01.186Z,58.01
2023-05-19T11:13:01.016Z,58.21
2023-05-19T11:14:01.008Z,58.31
2023-05-19T11:15:01.774Z,58.41
2023-05-19T11:16:00.952Z,57.70
2023-05-19T11:17:01.473Z,58.01
2023-05-19T11:18:01.004Z,58.21
2023-05-19T11:19:00.932Z,58.71
2023-05-19T11:20:00.974Z,58.41
2023-05-19T11:21:01.002Z,58.61
2023-05-19T11:22:00.968Z,58.81
2023-05-19T11:23:01.053Z,58.81
2023-05-19T11:24:00.977Z,58.21
2023-05-19T11:25:00.869Z,58.21
2023-05-19T11:26:00.812Z,58.21
2023-05-19T11:27:00.854Z,58.01
2023-05-19T11:28:02.101Z,57.60
2023-05-19T11:29:01.109Z,58.01
2023-05-19T11:30:02.218Z,58.38
2023-05-19T11:31:00.933Z,58.58
2023-05-19T11:32:01.413Z,58.88
2023-05-19T11:33:01.791Z,58.98
2023-05-19T11:34:00.869Z,58.88
2023-05-19T11:35:00.707Z,58.58
2023-05-19T11:36:00.702Z,58.07
2023-05-19T11:37:00.683Z,57.78
2023-05-19T11:38:00.685Z,57.68
2023-05-19T11:39:00.670Z,57.78
2023-05-19T11:40:00.673Z,57.88
2023-05-19T11:41:00.653Z,57.78
2023-05-19T11:42:00.656Z,57.68
2023-05-19T11:43:00.668Z,57.07
2023-05-19T11:44:00.669Z,57.17
2023-05-19T11:45:00.593Z,57.37
2023-05-19T11:46:00.781Z,57.37
2023-05-19T11:47:00.652Z,57.28
2023-05-19T11:48:03.017Z,57.37
2023-05-19T11:49:00.597Z,57.45
2023-05-19T11:50:02.310Z,57.35
2023-05-19T11:51:00.654Z,57.65
2023-05-19T11:52:01.252Z,57.45
2023-05-19T11:53:00.550Z,56.95
2023-05-19T11:54:01.218Z,57.35
2023-05-19T11:55:00.518Z,57.24
2023-05-19T11:56:00.464Z,57.45
2023-05-19T11:57:00.447Z,57.35
2023-05-19T11:58:04.678Z,57.52
2023-05-19T11:59:01.447Z,57.62
2023-05-19T12:00:00.471Z,57.72
2023-05-19T12:01:00.430Z,57.52
2023-05-19T12:02:01.391Z,57.42
2023-05-19T12:03:00.465Z,56.92
2023-05-19T12:04:00.456Z,57.42
2023-05-19T12:05:00.466Z,57.55
2023-05-19T12:06:00.500Z,57.15
2023-05-19T12:07:00.406Z,57.65
2023-05-19T12:08:00.355Z,57.35
2023-05-19T12:09:00.337Z,57.24
2023-05-19T12:10:00.360Z,57.55
2023-05-19T12:11:00.344Z,57.65
2023-05-19T12:12:00.336Z,57.35
2023-05-19T12:13:00.307Z,57.55
2023-05-19T12:14:00.421Z,57.24
2023-05-19T12:15:00.289Z,57.55
2023-05-19T12:16:00.344Z,57.55
2023-05-19T12:17:00.275Z,57.35
2023-05-19T12:18:00.396Z,57.04
2023-05-19T12:19:00.388Z,57.15
2023-05-19T12:20:00.252Z,57.45
2023-05-19T12:21:00.286Z,57.45
2023-05-19T12:22:01.262Z,57.65
2023-05-19T12:23:00.188Z,57.65
2023-05-19T12:24:00.160Z,57.22
2023-05-19T12:25:00.154Z,57.22
2023-05-19T12:26:00.154Z,57.42
2023-05-19T12:27:00.135Z,57.02
2023-05-19T12:28:00.187Z,56.92
2023-05-19T12:29:00.134Z,56.82
2023-05-19T12:30:00.147Z,56.82
2023-05-19T12:31:00.133Z,56.51
2023-05-19T12:32:00.180Z,56.82
2023-05-19T12:33:00.097Z,57.02
2023-05-19T12:34:00.083Z,57.32
2023-05-19T12:35:00.042Z,57.42
2023-05-19T12:36:00.051Z,57.22
2023-05-19T12:37:00.005Z,57.24
2023-05-19T12:38:00.153Z,57.65
2023-05-19T12:39:00.030Z,57.85
2023-05-19T12:39:59.986Z,57.75
2023-05-19T12:41:00.047Z,57.95
2023-05-19T12:41:59.987Z,57.65
2023-05-19T12:43:00.076Z,57.85
2023-05-19T12:43:59.950Z,58.35
2023-05-19T12:45:00.875Z,58.28
2023-05-19T12:45:59.968Z,58.58
2023-05-19T12:46:59.902Z,58.78
2023-05-19T12:47:59.952Z,59.19
2023-05-19T12:48:59.886Z,59.28
2023-05-19T12:49:59.939Z,58.58
2023-05-19T12:50:59.885Z,58.68
2023-05-19T12:52:01.096Z,58.88